Time;durP1;ratioP1;P1;durP2;ratioP2;P2;SDS_P1;SDS_P2;PMS_P1;PMS_P2;Temp;Humidity;BMP_temperature;BMP_pressure;BME280_temperature;BME280_humidity;BME280_pressure;Samples;Min_cycle;Max_cycle;Signal;HPM_P1;HPM_P2
2024/02/25 00:02:00;;;;;;;6.57;3.97;;;4.10;1.00;;;;;;5055912;28;20433;-70
2024/02/25 00:04:28;;;;;;;6.50;3.10;;;4.10;1.00;;;;;;5054997;28;20511;-70
2024/02/25 00:06:57;;;;;;;6.10;2.73;;;4.10;1.00;;;;;;5054770;28;20889;-70
2024/02/25 00:09:24;;;;;;;5.90;2.63;;;4.10;1.00;;;;;;5054601;28;20581;-70
2024/02/25 00:11:52;;;;;;;6.07;3.40;;;4.20;1.00;;;;;;5054695;28;20462;-71
2024/02/25 00:14:19;;;;;;;5.00;2.87;;;4.20;1.00;;;;;;5053982;28;20466;-71
2024/02/25 00:16:47;;;;;;;4.23;2.50;;;4.30;1.00;;;;;;5054373;28;20515;-70
2024/02/25 00:19:14;;;;;;;3.43;2.50;;;4.40;1.00;;;;;;5054644;28;20461;-70
2024/02/25 00:21:43;;;;;;;5.33;2.53;;;4.40;1.00;;;;;;5056160;28;20887;-71
2024/02/25 00:24:13;;;;;;;3.67;2.47;;;4.40;1.00;;;;;;5055341;28;20465;-69
2024/02/25 00:26:40;;;;;;;3.97;2.73;;;4.50;99.90;;;;;;5055641;28;20561;-70
2024/02/25 00:29:08;;;;;;;5.27;2.63;;;4.50;99.90;;;;;;5055743;28;20493;-70
2024/02/25 00:31:35;;;;;;;4.87;2.80;;;4.60;97.50;;;;;;5056024;28;20761;-70
2024/02/25 00:34:03;;;;;;;3.63;2.50;;;4.50;54.30;;;;;;5055858;28;20798;-70
2024/02/25 00:36:30;;;;;;;4.27;2.80;;;4.50;87.30;;;;;;5055299;28;20466;-69
2024/02/25 00:38:57;;;;;;;4.60;2.63;;;4.50;99.90;;;;;;5055652;28;20927;-71
2024/02/25 00:41:26;;;;;;;4.80;3.33;;;4.50;99.90;;;;;;5055569;28;20526;-71
2024/02/25 00:43:55;;;;;;;4.30;2.77;;;4.50;99.90;;;;;;5055619;28;20467;-69
2024/02/25 00:46:22;;;;;;;4.97;3.57;;;4.60;24.60;;;;;;5055467;28;20470;-71
2024/02/25 00:48:50;;;;;;;6.07;2.93;;;4.70;1.00;;;;;;5055580;28;20505;-70
2024/02/25 00:51:17;;;;;;;7.40;3.07;;;4.70;24.50;;;;;;5055249;28;20454;-69
2024/02/25 00:53:45;;;;;;;4.63;3.23;;;4.70;99.90;;;;;;5055068;28;20931;-68
2024/02/25 00:56:12;;;;;;;8.10;4.23;;;4.70;59.20;;;;;;5054766;28;20466;-65
2024/02/25 00:58:41;;;;;;;6.87;4.10;;;4.80;62.20;;;;;;5054931;28;20458;-67
2024/02/25 01:01:14;;;;;;;3.87;2.20;;;4.80;57.70;;;;;;5055403;28;20498;-67
2024/02/25 01:03:42;;;;;;;9.03;3.43;;;4.80;68.00;;;;;;5054781;28;20835;-67
2024/02/25 01:06:09;;;;;;;9.87;3.93;;;4.80;99.90;;;;;;5055055;28;20552;-67
2024/02/25 01:08:39;;;;;;;6.30;2.60;;;4.70;99.90;;;;;;5058864;28;20526;-67
2024/02/25 01:11:07;;;;;;;6.97;3.10;;;4.70;90.20;;;;;;5074267;28;20468;-67
2024/02/25 01:13:34;;;;;;;6.20;2.80;;;4.80;58.50;;;;;;5074448;28;20817;-67
2024/02/25 01:16:03;;;;;;;6.10;2.43;;;4.80;1.00;;;;;;5075019;28;20461;-67
2024/02/25 01:18:31;;;;;;;5.00;3.27;;;4.80;1.00;;;;;;5073720;28;20458;-68
2024/02/25 01:20:59;;;;;;;4.50;2.73;;;4.90;1.00;;;;;;5068803;28;20462;-67
2024/02/25 01:23:26;;;;;;;5.93;2.63;;;4.90;47.10;;;;;;5054871;28;20501;-66
2024/02/25 01:25:54;;;;;;;4.53;2.53;;;4.90;1.00;;;;;;5055015;28;20832;-68
2024/02/25 01:28:22;;;;;;;6.77;2.50;;;4.90;1.00;;;;;;5055144;27;20494;-66
2024/02/25 01:30:49;;;;;;;5.30;2.70;;;4.90;4.80;;;;;;5054654;28;20751;-66
2024/02/25 01:33:18;;;;;;;3.57;2.00;;;4.90;9.00;;;;;;5054635;27;20463;-66
2024/02/25 01:35:45;;;;;;;2.97;2.10;;;4.90;28.60;;;;;;5055070;28;20466;-67
2024/02/25 01:38:12;;;;;;;2.93;1.90;;;4.80;97.70;;;;;;5054121;28;20454;-67
2024/02/25 01:40:40;;;;;;;5.13;2.00;;;4.90;99.90;;;;;;5053684;28;20458;-67
2024/02/25 01:43:08;;;;;;;3.00;1.90;;;4.90;1.00;;;;;;5054038;28;20473;-68
2024/02/25 01:45:35;;;;;;;4.07;2.03;;;4.90;1.00;;;;;;5054907;28;20929;-68
2024/02/25 01:48:03;;;;;;;3.33;1.80;;;4.90;1.00;;;;;;5054958;27;20482;-68
2024/02/25 01:50:33;;;;;;;3.50;2.10;;;4.90;99.90;;;;;;5054268;28;20755;-68
2024/02/25 01:53:01;;;;;;;3.37;1.80;;;4.90;99.90;;;;;;5052527;28;20902;-69
2024/02/25 01:55:31;;;;;;;3.70;2.20;;;5.00;99.90;;;;;;5053021;27;20464;-68
2024/02/25 01:58:00;;;;;;;3.23;2.27;;;5.00;1.00;;;;;;5052821;28;20450;-68
2024/02/25 02:00:29;;;;;;;3.60;2.13;;;4.90;1.00;;;;;;5052835;28;20531;-68
2024/02/25 02:02:59;;;;;;;3.10;2.30;;;5.00;1.00;;;;;;5052749;28;20458;-68
2024/02/25 02:05:26;;;;;;;5.90;2.33;;;5.00;99.90;;;;;;5054083;28;20468;-67
2024/02/25 02:07:56;;;;;;;2.93;2.30;;;5.00;99.90;;;;;;5054188;28;20907;-68
2024/02/25 02:10:23;;;;;;;4.87;2.07;;;5.00;99.90;;;;;;5053201;28;20956;-68
2024/02/25 02:12:50;;;;;;;3.57;2.13;;;5.00;99.90;;;;;;5054122;27;20462;-67
2024/02/25 02:15:18;;;;;;;2.80;1.93;;;5.00;99.90;;;;;;5054614;27;20462;-67
2024/02/25 02:17:46;;;;;;;2.70;1.90;;;5.10;99.90;;;;;;5054554;27;20722;-68
2024/02/25 02:20:18;;;;;;;3.93;2.30;;;5.00;99.90;;;;;;5053766;28;20462;-67
2024/02/25 02:22:47;;;;;;;4.60;2.60;;;5.10;99.90;;;;;;5054695;27;20471;-67
2024/02/25 02:25:16;;;;;;;2.97;1.87;;;5.00;99.90;;;;;;5054141;27;20458;-68
2024/02/25 02:27:44;;;;;;;3.50;2.47;;;5.00;99.90;;;;;;5054085;28;20470;-68
2024/02/25 02:30:12;;;;;;;4.60;2.60;;;5.00;99.90;;;;;;5053598;28;20541;-68
2024/02/25 02:32:40;;;;;;;3.10;2.23;;;5.00;99.90;;;;;;5052282;28;20470;-67
2024/02/25 02:35:08;;;;;;;5.23;2.37;;;5.00;99.90;;;;;;5051849;27;20466;-66
2024/02/25 02:37:35;;;;;;;3.10;2.30;;;5.00;99.90;;;;;;5052622;27;20561;-67
2024/02/25 02:40:05;;;;;;;3.87;2.03;;;5.00;99.90;;;;;;5052206;28;20533;-67
2024/02/25 02:42:33;;;;;;;3.70;2.60;;;4.90;99.90;;;;;;5052089;28;20562;-66
2024/02/25 02:45:01;;;;;;;5.97;2.67;;;4.90;1.00;;;;;;5052198;27;20462;-67
2024/02/25 02:47:28;;;;;;;3.47;1.83;;;4.90;1.00;;;;;;5052374;27;20542;-66
2024/02/25 02:49:56;;;;;;;3.73;2.70;;;4.80;1.00;;;;;;5053364;28;20966;-67
2024/02/25 02:52:23;;;;;;;4.10;2.40;;;4.80;1.00;;;;;;5053629;28;20485;-66
2024/02/25 02:54:50;;;;;;;4.60;2.20;;;4.80;1.00;;;;;;5053837;28;20489;-66
2024/02/25 02:57:20;;;;;;;3.53;2.27;;;4.80;1.00;;;;;;5053883;28;20836;-67
2024/02/25 02:59:48;;;;;;;4.00;2.30;;;4.70;1.00;;;;;;5054236;27;20561;-66
2024/02/25 03:02:15;;;;;;;4.13;2.40;;;4.70;1.00;;;;;;5053267;28;20546;-67
2024/02/25 03:04:42;;;;;;;3.37;2.20;;;4.70;1.00;;;;;;5053550;28;20494;-67
2024/02/25 03:07:09;;;;;;;3.10;2.20;;;4.70;1.00;;;;;;5053240;28;20454;-67
2024/02/25 03:09:37;;;;;;;3.23;2.53;;;4.60;1.00;;;;;;5053975;27;20494;-68
2024/02/25 03:12:04;;;;;;;3.57;2.17;;;4.60;1.00;;;;;;5053966;27;20490;-67
2024/02/25 03:14:34;;;;;;;3.57;2.20;;;4.60;37.90;;;;;;5053544;27;20799;-67
2024/02/25 03:17:01;;;;;;;3.13;2.20;;;4.60;2.80;;;;;;5053564;27;20466;-67
2024/02/25 03:19:29;;;;;;;2.60;1.80;;;4.50;2.70;;;;;;5053803;27;20484;-68
2024/02/25 03:21:56;;;;;;;3.47;2.37;;;4.50;1.00;;;;;;5053291;27;20828;-67
2024/02/25 03:24:23;;;;;;;3.20;2.07;;;4.50;1.00;;;;;;5053429;27;20515;-69
2024/02/25 03:26:51;;;;;;;3.30;2.40;;;4.50;1.00;;;;;;5053506;27;20490;-69
2024/02/25 03:29:19;;;;;;;3.60;2.30;;;4.50;94.30;;;;;;5053418;27;20501;-69
2024/02/25 03:31:48;;;;;;;4.73;2.30;;;4.50;99.90;;;;;;5056655;27;20505;-68
2024/02/25 03:34:15;;;;;;;3.37;2.07;;;4.60;51.60;;;;;;5056271;28;20462;-68
2024/02/25 03:36:43;;;;;;;4.93;2.07;;;4.60;44.40;;;;;;5056565;28;20485;-68
2024/02/25 03:39:10;;;;;;;3.13;1.90;;;4.60;1.00;;;;;;5057080;28;20498;-69
2024/02/25 03:41:37;;;;;;;5.00;2.03;;;4.60;1.00;;;;;;5057173;27;20461;-68
2024/02/25 03:44:06;;;;;;;3.63;1.80;;;4.60;1.00;;;;;;5057010;28;20462;-69
2024/02/25 03:46:33;;;;;;;3.40;2.00;;;4.60;1.00;;;;;;5056327;28;20830;-71
2024/02/25 03:49:02;;;;;;;4.20;2.17;;;4.60;1.00;;;;;;5056531;28;20519;-69
2024/02/25 03:51:30;;;;;;;4.47;2.10;;;4.70;1.00;;;;;;5056623;28;20466;-71
2024/02/25 03:53:57;;;;;;;3.37;1.93;;;4.70;1.00;;;;;;5056286;28;20988;-67
2024/02/25 03:56:25;;;;;;;2.90;2.07;;;4.70;1.00;;;;;;5056254;28;20457;-71
2024/02/25 03:58:52;;;;;;;2.70;2.10;;;4.70;1.00;;;;;;5056504;28;20454;-68
2024/02/25 04:01:22;;;;;;;4.70;2.40;;;4.80;1.00;;;;;;5056775;28;20553;-70
2024/02/25 04:03:50;;;;;;;5.00;2.47;;;4.80;1.00;;;;;;5056448;28;20561;-69
2024/02/25 04:06:18;;;;;;;3.17;1.80;;;4.80;1.00;;;;;;5056224;28;20532;-69
2024/02/25 04:08:45;;;;;;;2.80;2.00;;;4.80;1.00;;;;;;5056202;27;20556;-68
2024/02/25 04:11:13;;;;;;;3.77;2.00;;;4.80;1.00;;;;;;5056333;28;20554;-68
2024/02/25 04:13:40;;;;;;;3.10;2.03;;;4.80;1.00;;;;;;5056388;28;20975;-69
2024/02/25 04:16:07;;;;;;;4.07;1.77;;;4.80;1.00;;;;;;5056529;28;20437;-69
2024/02/25 04:18:34;;;;;;;3.60;2.40;;;4.80;1.00;;;;;;5056014;28;20503;-70
2024/02/25 04:21:02;;;;;;;2.60;1.70;;;4.80;1.00;;;;;;5055862;28;20557;-69
2024/02/25 04:23:31;;;;;;;3.90;2.03;;;4.80;1.00;;;;;;5055920;28;20493;-69
2024/02/25 04:25:58;;;;;;;3.27;1.90;;;4.90;1.00;;;;;;5056487;27;20462;-69
2024/02/25 04:28:28;;;;;;;3.77;1.80;;;4.80;1.00;;;;;;5055586;28;20479;-69
2024/02/25 04:30:55;;;;;;;4.00;1.63;;;4.90;96.30;;;;;;5055864;28;20454;-70
2024/02/25 04:33:22;;;;;;;5.93;1.90;;;4.90;1.00;;;;;;5055589;27;20458;-69
2024/02/25 04:35:51;;;;;;;4.60;2.23;;;4.90;1.00;;;;;;5056101;28;20503;-70
2024/02/25 04:38:18;;;;;;;3.20;1.93;;;4.90;7.30;;;;;;5055891;28;20469;-70
2024/02/25 04:40:52;;;;;;;2.50;1.63;;;4.90;1.00;;;;;;5055472;28;20454;-69
2024/02/25 04:43:20;;;;;;;2.90;1.70;;;4.90;99.90;;;;;;5054590;27;20549;-69
2024/02/25 04:45:47;;;;;;;3.30;1.80;;;5.00;99.90;;;;;;5055679;28;20462;-69
2024/02/25 04:48:14;;;;;;;3.73;1.80;;;4.90;99.90;;;;;;5055210;27;20462;-70
2024/02/25 04:50:42;;;;;;;4.70;2.00;;;4.90;99.90;;;;;;5055179;28;20597;-69
2024/02/25 04:53:10;;;;;;;3.00;1.90;;;4.90;99.90;;;;;;5055124;28;20953;-69
2024/02/25 04:55:37;;;;;;;2.53;1.70;;;4.90;99.90;;;;;;5055557;28;20462;-72
2024/02/25 04:58:08;;;;;;;2.90;1.80;;;4.90;99.90;;;;;;5055480;28;20466;-69
2024/02/25 05:00:35;;;;;;;2.87;1.80;;;4.90;1.00;;;;;;5055526;28;20527;-68
2024/02/25 05:03:02;;;;;;;2.80;1.57;;;4.90;1.00;;;;;;5055430;27;20462;-67
2024/02/25 05:05:30;;;;;;;2.87;1.83;;;4.80;99.90;;;;;;5055785;27;20466;-67
2024/02/25 05:07:57;;;;;;;2.70;1.80;;;4.80;99.90;;;;;;5055930;27;20938;-67
2024/02/25 05:10:24;;;;;;;3.60;2.17;;;4.80;99.90;;;;;;5054980;28;20494;-67
2024/02/25 05:12:51;;;;;;;3.10;2.17;;;4.70;99.90;;;;;;5054936;28;20466;-66
2024/02/25 05:15:20;;;;;;;2.90;1.90;;;4.70;1.00;;;;;;5055531;27;20454;-66
2024/02/25 05:17:47;;;;;;;3.10;2.00;;;4.70;1.00;;;;;;5055221;28;20458;-66
2024/02/25 05:20:15;;;;;;;3.07;2.03;;;4.70;1.00;;;;;;5054414;28;20515;-66
2024/02/25 05:22:42;;;;;;;3.30;2.17;;;4.60;1.00;;;;;;5055044;28;20462;-66
2024/02/25 05:25:14;;;;;;;3.27;1.90;;;4.70;95.90;;;;;;5055139;28;20959;-66
2024/02/25 05:27:41;;;;;;;6.40;2.10;;;4.60;99.90;;;;;;5055425;28;20462;-66
2024/02/25 05:30:10;;;;;;;3.07;1.90;;;4.60;99.90;;;;;;5055056;28;20969;-67
2024/02/25 05:32:38;;;;;;;7.47;2.40;;;4.60;99.90;;;;;;5054647;27;20557;-66
2024/02/25 05:35:06;;;;;;;3.10;1.90;;;4.60;99.90;;;;;;5054809;28;20519;-67
2024/02/25 05:37:34;;;;;;;3.87;2.27;;;4.60;99.90;;;;;;5054994;28;20540;-66
2024/02/25 05:40:03;;;;;;;2.80;2.17;;;4.60;99.90;;;;;;5054341;28;20459;-66
2024/02/25 05:42:31;;;;;;;2.80;1.77;;;4.50;1.00;;;;;;5054276;28;20470;-66
2024/02/25 05:44:58;;;;;;;3.10;1.90;;;4.50;1.00;;;;;;5054446;28;20556;-66
2024/02/25 05:47:25;;;;;;;2.73;2.00;;;4.50;1.00;;;;;;5055050;28;20466;-66
2024/02/25 05:49:55;;;;;;;3.50;2.20;;;4.60;1.00;;;;;;5055032;28;20505;-66
2024/02/25 05:52:22;;;;;;;3.67;2.20;;;4.60;1.00;;;;;;5054893;27;20501;-67
2024/02/25 05:54:50;;;;;;;2.97;2.00;;;4.60;1.00;;;;;;5053842;28;20482;-67
2024/02/25 05:57:17;;;;;;;3.20;2.17;;;4.60;1.00;;;;;;5054043;28;20569;-67
2024/02/25 05:59:46;;;;;;;3.17;2.13;;;4.60;1.00;;;;;;5054721;28;20458;-67
2024/02/25 06:02:14;;;;;;;3.20;1.90;;;4.60;1.00;;;;;;5054603;27;20888;-66
2024/02/25 06:04:41;;;;;;;2.93;1.90;;;4.60;1.00;;;;;;5054752;28;20464;-66
2024/02/25 06:07:09;;;;;;;4.70;2.30;;;4.60;64.30;;;;;;5054305;28;20494;-67
2024/02/25 06:09:37;;;;;;;3.20;1.77;;;4.50;99.90;;;;;;5054518;27;20939;-66
2024/02/25 06:12:05;;;;;;;4.73;3.17;;;4.50;99.90;;;;;;5054642;27;20823;-66
2024/02/25 06:14:32;;;;;;;3.50;2.20;;;4.50;99.90;;;;;;5054598;27;20922;-66
2024/02/25 06:16:59;;;;;;;3.57;1.90;;;4.50;99.90;;;;;;5054215;28;20498;-66
2024/02/25 06:19:27;;;;;;;3.63;2.27;;;4.50;99.90;;;;;;5054568;28;20533;-66
2024/02/25 06:21:54;;;;;;;4.20;2.50;;;4.50;99.90;;;;;;5054206;28;20465;-66
2024/02/25 06:24:23;;;;;;;3.67;2.50;;;4.50;99.90;;;;;;5053796;28;20466;-66
2024/02/25 06:26:50;;;;;;;3.30;2.00;;;4.50;99.90;;;;;;5053599;28;20466;-67
2024/02/25 06:29:18;;;;;;;2.90;2.03;;;4.50;1.00;;;;;;5054250;28;20530;-66
2024/02/25 06:31:46;;;;;;;3.73;2.43;;;4.50;99.90;;;;;;5054005;28;20479;-67
2024/02/25 06:34:13;;;;;;;4.30;2.60;;;4.50;99.90;;;;;;5053513;28;20475;-66
2024/02/25 06:36:40;;;;;;;3.47;2.30;;;4.50;99.90;;;;;;5054346;28;20832;-67
2024/02/25 06:39:09;;;;;;;3.30;2.60;;;4.50;99.90;;;;;;5053875;28;20486;-66
2024/02/25 06:41:38;;;;;;;4.10;2.50;;;4.50;99.90;;;;;;5054347;28;20455;-67
2024/02/25 06:44:05;;;;;;;4.00;2.03;;;4.50;22.10;;;;;;5053939;28;20502;-68
2024/02/25 06:46:32;;;;;;;3.40;2.60;;;4.60;99.90;;;;;;5053316;28;20944;-67
2024/02/25 06:48:59;;;;;;;3.77;2.30;;;4.50;1.00;;;;;;5054167;28;20853;-67
2024/02/25 06:51:27;;;;;;;3.03;2.30;;;4.60;99.90;;;;;;5053714;28;20523;-67
2024/02/25 06:53:55;;;;;;;2.87;2.20;;;4.60;99.90;;;;;;5053497;28;20870;-68
2024/02/25 06:56:22;;;;;;;4.30;2.33;;;4.60;1.00;;;;;;5053097;28;20458;-67
2024/02/25 06:58:51;;;;;;;4.30;1.90;;;4.70;90.70;;;;;;5053920;28;20462;-68
2024/02/25 07:01:20;;;;;;;3.60;2.33;;;4.60;1.00;;;;;;5053393;28;20550;-67
2024/02/25 07:03:47;;;;;;;10.07;7.00;;;4.60;1.00;;;;;;5053673;28;20509;-67
2024/02/25 07:06:15;;;;;;;16.30;9.23;;;4.60;12.90;;;;;;5055329;28;20545;-67
2024/02/25 07:08:42;;;;;;;16.50;10.10;;;4.60;99.90;;;;;;5056774;28;20514;-67
2024/02/25 07:11:16;;;;;;;4.63;4.13;;;4.70;99.90;;;;;;5056548;28;20523;-68
2024/02/25 07:13:44;;;;;;;5.37;3.60;;;4.70;38.70;;;;;;5057136;28;20462;-68
2024/02/25 07:16:14;;;;;;;4.53;3.40;;;4.70;1.00;;;;;;5057110;28;20465;-67
2024/02/25 07:18:41;;;;;;;5.20;4.10;;;4.70;63.30;;;;;;5056843;28;20903;-67
2024/02/25 07:21:11;;;;;;;4.90;4.17;;;4.80;1.00;;;;;;5056960;28;20568;-68
2024/02/25 07:23:41;;;;;;;7.70;6.70;;;4.80;1.00;;;;;;5056799;28;20507;-68
2024/02/25 07:26:09;;;;;;;4.10;2.83;;;4.80;1.00;;;;;;5057304;28;20476;-68
2024/02/25 07:28:36;;;;;;;4.53;3.40;;;4.80;1.00;;;;;;5056419;28;20515;-68
2024/02/25 07:31:04;;;;;;;3.63;2.70;;;4.90;99.90;;;;;;5056714;28;20490;-68
2024/02/25 07:33:32;;;;;;;3.90;2.90;;;4.90;99.90;;;;;;5056484;28;20463;-67
2024/02/25 07:36:00;;;;;;;3.67;2.63;;;4.90;99.90;;;;;;5056795;28;20569;-67
2024/02/25 07:38:27;;;;;;;4.90;3.53;;;5.00;99.90;;;;;;5056613;28;20497;-67
2024/02/25 07:40:54;;;;;;;5.60;3.17;;;5.00;99.90;;;;;;5056147;28;20462;-67
2024/02/25 07:43:22;;;;;;;5.17;3.43;;;5.00;99.90;;;;;;5056982;28;20891;-68
2024/02/25 07:45:51;;;;;;;4.77;3.10;;;5.10;98.10;;;;;;5056241;28;20514;-67
2024/02/25 07:48:18;;;;;;;4.10;3.17;;;5.10;1.00;;;;;;5056105;28;20462;-67
2024/02/25 07:50:47;;;;;;;4.13;2.50;;;5.20;1.00;;;;;;5056508;28;20556;-67
2024/02/25 07:53:14;;;;;;;4.33;2.13;;;5.20;99.90;;;;;;5055739;28;20466;-67
2024/02/25 07:55:42;;;;;;;4.93;2.80;;;5.20;99.90;;;;;;5056666;28;20488;-67
2024/02/25 07:58:09;;;;;;;3.50;2.60;;;5.30;1.00;;;;;;5056771;28;20515;-67
2024/02/25 08:00:36;;;;;;;4.57;2.80;;;5.30;99.90;;;;;;5056567;28;20494;-67
2024/02/25 08:03:04;;;;;;;4.60;2.80;;;5.30;1.00;;;;;;5056033;28;20462;-67
2024/02/25 08:05:32;;;;;;;4.37;2.87;;;5.30;99.90;;;;;;5056636;28;20796;-67
2024/02/25 08:08:00;;;;;;;4.50;2.93;;;5.40;99.90;;;;;;5056291;28;20458;-67
2024/02/25 08:10:28;;;;;;;3.83;2.60;;;5.50;99.90;;;;;;5055768;28;20490;-67
2024/02/25 08:12:59;;;;;;;3.20;2.10;;;5.50;99.90;;;;;;5056002;28;20466;-67
2024/02/25 08:15:26;;;;;;;3.00;2.40;;;5.60;99.90;;;;;;5056136;28;20780;-67
2024/02/25 08:17:54;;;;;;;3.60;2.70;;;5.60;99.90;;;;;;5055845;28;20506;-67
2024/02/25 08:20:21;;;;;;;3.23;2.10;;;5.60;1.00;;;;;;5055947;28;20952;-67
2024/02/25 08:22:49;;;;;;;4.60;3.07;;;5.60;99.90;;;;;;5056415;28;21030;-67
2024/02/25 08:25:17;;;;;;;5.57;3.67;;;5.70;50.90;;;;;;5055989;28;20462;-67
2024/02/25 08:27:45;;;;;;;3.80;2.63;;;5.70;99.90;;;;;;5056013;28;20583;-67
2024/02/25 08:30:12;;;;;;;6.10;2.90;;;5.70;99.90;;;;;;5055271;28;20501;-67
2024/02/25 08:32:40;;;;;;;3.43;2.07;;;5.80;99.90;;;;;;5055653;28;20462;-68
2024/02/25 08:35:08;;;;;;;3.80;2.50;;;5.90;1.00;;;;;;5055245;28;20451;-68
2024/02/25 08:37:35;;;;;;;3.10;2.27;;;5.80;1.00;;;;;;5060783;27;20470;-67
2024/02/25 08:40:03;;;;;;;3.40;2.40;;;5.90;1.00;;;;;;5096687;27;20533;-67
2024/02/25 08:42:32;;;;;;;4.83;3.20;;;5.90;1.00;;;;;;5045447;27;20459;-67
2024/02/25 08:44:59;;;;;;;4.87;2.27;;;5.90;1.00;;;;;;5035693;28;20463;-68
2024/02/25 08:47:26;;;;;;;3.00;1.97;;;6.00;1.00;;;;;;5035775;28;20463;-67
2024/02/25 08:49:54;;;;;;;5.53;2.10;;;6.00;99.90;;;;;;5034965;28;20508;-67
2024/02/25 08:52:21;;;;;;;3.17;2.00;;;6.00;99.90;;;;;;5035433;28;20468;-67
2024/02/25 08:54:49;;;;;;;3.33;1.80;;;6.00;99.90;;;;;;5035449;28;20816;-67
2024/02/25 08:57:17;;;;;;;3.53;2.27;;;6.00;1.00;;;;;;5035502;28;20487;-66
2024/02/25 08:59:45;;;;;;;3.00;2.07;;;6.00;1.00;;;;;;5035488;28;20880;-67
2024/02/25 09:02:13;;;;;;;4.13;2.90;;;6.00;1.00;;;;;;5035430;28;20463;-66
2024/02/25 09:04:41;;;;;;;6.80;3.40;;;6.00;1.00;;;;;;5035338;28;20469;-68
2024/02/25 09:07:08;;;;;;;3.27;1.90;;;6.00;1.00;;;;;;5035575;28;20459;-67
2024/02/25 09:09:36;;;;;;;2.80;2.10;;;6.00;99.90;;;;;;5035333;28;20502;-66
2024/02/25 09:12:03;;;;;;;2.70;2.03;;;6.10;1.00;;;;;;5034151;28;20511;-66
2024/02/25 09:14:31;;;;;;;5.57;2.80;;;6.10;1.00;;;;;;5035044;28;20534;-66
2024/02/25 09:17:00;;;;;;;4.20;2.83;;;6.30;1.00;;;;;;5035053;28;20463;-66
2024/02/25 09:19:27;;;;;;;3.20;2.47;;;6.40;1.00;;;;;;5034929;28;20438;-66
2024/02/25 09:21:55;;;;;;;3.90;2.40;;;6.50;99.90;;;;;;5034005;28;20823;-66
2024/02/25 09:24:22;;;;;;;4.13;2.70;;;6.60;99.90;;;;;;5033239;28;20491;-66
2024/02/25 09:26:49;;;;;;;3.23;2.30;;;6.60;99.90;;;;;;5033792;28;20505;-67
2024/02/25 09:29:17;;;;;;;4.13;2.00;;;6.60;99.90;;;;;;5032539;28;20912;-66
2024/02/25 09:31:44;;;;;;;4.43;2.30;;;6.70;99.90;;;;;;5033682;28;20943;-66
2024/02/25 09:34:14;;;;;;;3.70;1.70;;;6.70;1.00;;;;;;5032837;28;20544;-65
2024/02/25 09:36:43;;;;;;;3.40;2.40;;;6.80;1.00;;;;;;5034046;28;20464;-66
2024/02/25 09:39:11;;;;;;;16.53;8.03;;;6.80;1.00;;;;;;5034669;28;20474;-66
2024/02/25 09:41:40;;;;;;;19.40;10.80;;;6.80;1.00;;;;;;5035118;28;20482;-66
2024/02/25 09:44:13;;;;;;;7.00;4.80;;;6.90;1.00;;;;;;5035282;28;20456;-65
2024/02/25 09:46:41;;;;;;;4.73;3.20;;;6.90;36.00;;;;;;5034644;28;20949;-66
2024/02/25 09:49:09;;;;;;;4.23;2.20;;;7.00;1.00;;;;;;5035150;28;20470;-66
2024/02/25 09:51:41;;;;;;;4.20;2.10;;;7.10;99.90;;;;;;5047957;28;20486;-65
2024/02/25 09:54:09;;;;;;;3.37;1.80;;;7.20;99.90;;;;;;5054180;28;20482;-65
2024/02/25 09:56:36;;;;;;;2.80;1.80;;;7.20;99.90;;;;;;5054710;28;20518;-65
2024/02/25 09:59:06;;;;;;;4.37;3.90;;;7.20;99.90;;;;;;5054399;28;20751;-66
2024/02/25 10:01:35;;;;;;;4.30;2.80;;;7.30;99.90;;;;;;5054488;28;20757;-66
2024/02/25 10:04:04;;;;;;;7.10;3.23;;;7.30;99.90;;;;;;5054516;28;20454;-65
2024/02/25 10:06:38;;;;;;;5.57;2.13;;;7.30;99.90;;;;;;5054342;28;20462;-65
2024/02/25 10:09:07;;;;;;;6.70;3.17;;;7.40;99.90;;;;;;5054537;28;20465;-64
2024/02/25 10:11:35;;;;;;;3.80;2.23;;;7.50;99.90;;;;;;5054416;28;20490;-65
2024/02/25 10:14:03;;;;;;;3.80;2.10;;;7.60;99.90;;;;;;5054635;28;20560;-65
2024/02/25 10:16:31;;;;;;;2.70;1.80;;;7.70;99.90;;;;;;5054190;28;20481;-65
2024/02/25 10:19:00;;;;;;;5.33;2.73;;;7.80;99.90;;;;;;5054225;28;20494;-64
2024/02/25 10:21:28;;;;;;;2.90;1.73;;;8.00;99.90;;;;;;5053678;28;20461;-64
2024/02/25 10:23:57;;;;;;;4.67;2.43;;;8.50;99.90;;;;;;5054146;28;20552;-64
2024/02/25 10:26:26;;;;;;;4.77;2.60;;;8.90;59.80;;;;;;5054015;28;20477;-65
2024/02/25 10:29:11;;;;;;;2.93;1.23;;;8.90;1.00;;;;;;5054264;28;20458;-64
2024/02/25 10:31:39;;;;;;;2.63;1.70;;;9.40;1.00;;;;;;5054348;28;20496;-64
2024/02/25 10:34:09;;;;;;;2.40;1.57;;;9.50;1.00;;;;;;5054442;28;20467;-64
2024/02/25 10:36:37;;;;;;;2.77;1.40;;;9.70;1.00;;;;;;5054083;28;20502;-65
2024/02/25 10:39:09;;;;;;;3.80;2.00;;;9.70;1.00;;;;;;5054237;28;20806;-64
2024/02/25 10:41:38;;;;;;;3.00;1.60;;;9.80;1.00;;;;;;5057805;28;20747;-65
2024/02/25 10:44:08;;;;;;;2.47;1.60;;;9.80;1.00;;;;;;5057856;28;20502;-65
2024/02/25 10:46:42;;;;;;;4.00;2.07;;;9.90;1.00;;;;;;5057353;28;20565;-63
2024/02/25 10:49:13;;;;;;;2.70;1.90;;;9.90;1.00;;;;;;5057259;28;20465;-65
2024/02/25 10:51:42;;;;;;;3.80;1.83;;;9.70;1.00;;;;;;5056834;28;20490;-65
2024/02/25 10:54:12;;;;;;;3.17;1.70;;;9.40;1.00;;;;;;5057175;28;20493;-65
2024/02/25 10:56:42;;;;;;;3.43;1.70;;;9.20;1.00;;;;;;5057469;28;20789;-66
2024/02/25 10:59:10;;;;;;;3.60;2.30;;;8.90;1.00;;;;;;5057355;27;20527;-65
2024/02/25 11:01:40;;;;;;;2.50;1.87;;;8.70;1.00;;;;;;5056894;28;20466;-65
2024/02/25 11:04:07;;;;;;;4.67;2.30;;;8.50;1.00;;;;;;5057524;28;20899;-65
2024/02/25 11:06:41;;;;;;;3.23;1.80;;;8.30;1.00;;;;;;5056879;28;20501;-64
2024/02/25 11:09:12;;;;;;;2.77;1.40;;;8.10;1.00;;;;;;5056682;28;20458;-65
2024/02/25 11:11:40;;;;;;;5.73;4.80;;;8.20;32.00;;;;;;5057115;28;20500;-66
2024/02/25 11:14:09;;;;;;;6.97;6.37;;;8.30;1.00;;;;;;5056409;28;20556;-64
2024/02/25 11:16:39;;;;;;;4.07;1.77;;;8.40;21.80;;;;;;5056932;28;20458;-66
2024/02/25 11:19:14;;;;;;;2.67;1.60;;;8.40;1.70;;;;;;5057068;28;20470;-65
2024/02/25 11:21:42;;;;;;;2.43;1.60;;;8.40;1.00;;;;;;5056981;28;20458;-66
2024/02/25 11:24:12;;;;;;;3.63;2.00;;;8.30;17.50;;;;;;5056653;28;20819;-65
2024/02/25 11:26:44;;;;;;;4.33;2.10;;;8.40;19.80;;;;;;5056504;28;20463;-65
2024/02/25 11:29:21;;;;;;;4.13;2.50;;;8.60;29.00;;;;;;5056750;28;20549;-64
2024/02/25 11:31:53;;;;;;;3.83;2.73;;;8.70;1.50;;;;;;5057031;28;20926;-65
2024/02/25 11:34:22;;;;;;;3.40;1.83;;;8.80;1.00;;;;;;5056577;28;20721;-65
2024/02/25 11:36:54;;;;;;;2.57;1.63;;;8.90;1.00;;;;;;5055951;28;20489;-65
2024/02/25 11:39:26;;;;;;;2.57;1.80;;;8.90;1.00;;;;;;5056250;28;20879;-65
2024/02/25 11:41:59;;;;;;;3.23;2.20;;;8.90;1.00;;;;;;5056559;28;20458;-65
2024/02/25 11:44:27;;;;;;;3.17;2.03;;;9.00;1.00;;;;;;5056032;28;20469;-64
2024/02/25 11:46:59;;;;;;;6.13;2.60;;;9.20;1.00;;;;;;5056374;28;20913;-64
2024/02/25 11:49:28;;;;;;;4.47;3.77;;;9.50;1.00;;;;;;5056432;28;20854;-63
2024/02/25 11:51:57;;;;;;;3.83;2.60;;;9.70;1.00;;;;;;5055964;28;20508;-63
2024/02/25 11:54:26;;;;;;;10.23;5.07;;;9.80;99.90;;;;;;5055817;28;20486;-64
2024/02/25 11:56:54;;;;;;;4.60;2.60;;;9.90;99.90;;;;;;5056446;28;20462;-65
2024/02/25 11:59:23;;;;;;;4.07;2.10;;;9.80;99.90;;;;;;5056517;28;20469;-65
2024/02/25 12:01:52;;;;;;;5.67;3.50;;;10.00;99.90;;;;;;5056378;28;20463;-65
2024/02/25 12:04:20;;;;;;;5.33;2.90;;;10.00;1.00;;;;;;5056083;28;20515;-63
2024/02/25 12:06:48;;;;;;;4.77;3.47;;;10.00;1.00;;;;;;5056373;28;20489;-64
2024/02/25 12:09:16;;;;;;;5.50;2.80;;;9.90;99.90;;;;;;5056102;28;20466;-65
2024/02/25 12:11:45;;;;;;;5.47;3.90;;;9.70;99.90;;;;;;5050460;28;20501;-65
2024/02/25 12:14:20;;;;;;;4.43;3.60;;;9.70;99.90;;;;;;5053245;28;20523;-62
2024/02/25 12:16:48;;;;;;;3.07;1.97;;;9.60;99.90;;;;;;5053200;28;20520;-61
2024/02/25 12:19:17;;;;;;;5.80;3.43;;;9.40;99.90;;;;;;5054633;28;20465;-67
2024/02/25 12:21:48;;;;;;;2.90;2.20;;;9.30;99.90;;;;;;5055894;28;20807;-64
2024/02/25 12:24:16;;;;;;;2.70;2.27;;;9.20;99.90;;;;;;5055686;28;20801;-64
2024/02/25 12:26:52;;;;;;;3.77;2.00;;;9.00;99.90;;;;;;5055708;28;20872;-64
2024/02/25 12:29:20;;;;;;;2.77;1.90;;;8.90;99.90;;;;;;5055969;28;20734;-64
2024/02/25 12:31:47;;;;;;;3.97;2.20;;;9.00;99.90;;;;;;5055821;28;20527;-64
2024/02/25 12:34:16;;;;;;;3.30;1.90;;;9.00;99.90;;;;;;5055067;28;20458;-64
2024/02/25 12:36:44;;;;;;;2.80;1.60;;;9.00;99.90;;;;;;5053014;28;20466;-62
2024/02/25 12:39:13;;;;;;;3.77;2.50;;;9.00;99.90;;;;;;5052706;28;20502;-64
2024/02/25 12:41:42;;;;;;;3.60;1.83;;;8.90;99.90;;;;;;5053201;28;20489;-65
2024/02/25 12:44:12;;;;;;;3.30;2.20;;;8.70;1.00;;;;;;5053270;28;20458;-64
2024/02/25 12:46:40;;;;;;;2.50;1.80;;;8.70;1.00;;;;;;5053697;28;20462;-65
2024/02/25 12:49:14;;;;;;;5.17;2.20;;;8.60;1.00;;;;;;5054332;28;20464;-63
2024/02/25 12:51:42;;;;;;;4.60;1.73;;;8.60;1.00;;;;;;5055609;28;20555;-64
2024/02/25 12:54:10;;;;;;;2.83;1.70;;;8.40;1.00;;;;;;5055341;28;20490;-64
2024/02/25 12:56:38;;;;;;;3.23;1.80;;;8.40;1.00;;;;;;5055322;28;20469;-63
2024/02/25 12:59:08;;;;;;;2.80;1.70;;;8.30;1.00;;;;;;5055687;28;20462;-64
2024/02/25 13:01:37;;;;;;;3.20;1.70;;;8.40;1.00;;;;;;5055862;28;20454;-64
2024/02/25 13:04:05;;;;;;;2.63;1.67;;;8.40;1.00;;;;;;5054017;28;20551;-64
2024/02/25 13:06:33;;;;;;;3.23;2.13;;;8.50;1.00;;;;;;5055323;28;20502;-65
2024/02/25 13:09:01;;;;;;;3.37;1.70;;;8.50;1.00;;;;;;5055060;28;20875;-63